Marratxi, Spain

9:51 AM CEST on April 18, 2015 (GMT +0200)
Santa Maria Del Cam (Escola) | | Change Station
CLOSE
Current Station
Personal Weather Station
Location: Santa Maria Del Cam�, ISLAS BALEARES
Elevation: 407 ft
Nearby Weather Stations

Elev 407 ft 39.64 °N, 2.78 °E | Updated 14 seconds ago

Rain
Rain
57.7 °F
Feels Like 57.7 °F
N
0.0
Wind Variable Wind from ESE
Gusts 0.0 mph

Today
High -- | Low -- °F
--% Chance of Precip.
Yesterday
High -- | Low -- °F
Precip. -- in
7:07 AM 8:29 PM
Waning Crescent, 0% visible
Pressure 30.01 in
Visibility 6.2 miles
Clouds Few 400 ft
Dew Point 57 °F
Humidity 98%
Rainfall 0.00 in
Snow Depth Not available.
UV 3 out of 12
Pollen Not available.
Air Quality Not available.
Flu Activity Not available.
METAR LEPA 180730Z VRB01KT 9999 FEW004 14/14 Q1016 NOSIG

More Conditions Fewer Conditions

Pressure 30.01 in
Visibility 6.2 miles
Clouds Few 400 ft
Dew Point 57 °F
Humidity 98%
Rainfall 0.00 in
Snow Depth Not available.
UV 3 out of 12
Pollen Not available.
Air Quality Not available.
Flu Activity Not available.
METAR LEPA 180730Z VRB01KT 9999 FEW004 14/14 Q1016 NOSIG

More Conditions Fewer Conditions

10-Day Weather Forecast

Almanac

Astronomy

Apr. 18, 2015 Rise Set
Actual Time
Civil Twilight
Nautical Twilight
Astronomical Twilight
Moon
Length of Visible Light
Length of Day
Tomorrow will be .
, % of the Moon is Illuminated

Today's Extremes

Country Highs Country Lows

Community

WunderPhotos

Upload Photos

1,814,345 photos uploaded!

WunderBlogs® & News

Nearby

Air Quality

  Air Quality AQ Index Pollutant
Not available.

Snow Depth

Station Depth Elevation

Earthquake Activity

City Distance Mag. Time & Date
Minimum magnitude displayed is 2.5.

Coastal Water Temperatures

Place Temperature

Stations

Nearby Weather Stations

Station Location Temp. Windchill Dew Point Humidity Wind Precip. Elev Updated Type